sensor_id;sensor_type;location;lat;lon;timestamp;P1;durP1;ratioP1;P2;durP2;ratioP2
59728;SDS011;45588;51.598;5.618;2023-05-29T00:02:05;18.80;;;6.50;;
59728;SDS011;45588;51.598;5.618;2023-05-29T00:04:30;19.57;;;8.20;;
59728;SDS011;45588;51.598;5.618;2023-05-29T00:06:55;13.83;;;6.67;;
59728;SDS011;45588;51.598;5.618;2023-05-29T00:09:21;14.40;;;6.20;;
59728;SDS011;45588;51.598;5.618;2023-05-29T00:11:46;13.68;;;6.78;;
59728;SDS011;45588;51.598;5.618;2023-05-29T00:14:15;21.25;;;6.35;;
59728;SDS011;45588;51.598;5.618;2023-05-29T00:16:44;17.85;;;6.57;;
59728;SDS011;45588;51.598;5.618;2023-05-29T00:19:09;19.03;;;6.97;;
59728;SDS011;45588;51.598;5.618;2023-05-29T00:21:34;23.97;;;9.23;;
59728;SDS011;45588;51.598;5.618;2023-05-29T00:23:59;17.08;;;7.00;;
59728;SDS011;45588;51.598;5.618;2023-05-29T00:26:24;13.20;;;5.37;;
59728;SDS011;45588;51.598;5.618;2023-05-29T00:28:50;9.68;;;4.45;;
59728;SDS011;45588;51.598;5.618;2023-05-29T00:31:15;19.00;;;5.27;;
59728;SDS011;45588;51.598;5.618;2023-05-29T00:33:40;22.48;;;6.32;;
59728;SDS011;45588;51.598;5.618;2023-05-29T00:36:06;22.67;;;6.45;;
59728;SDS011;45588;51.598;5.618;2023-05-29T00:38:31;17.35;;;4.88;;
59728;SDS011;45588;51.598;5.618;2023-05-29T00:40:56;21.27;;;7.87;;
59728;SDS011;45588;51.598;5.618;2023-05-29T00:43:23;15.43;;;5.05;;
59728;SDS011;45588;51.598;5.618;2023-05-29T00:45:49;14.77;;;4.60;;
59728;SDS011;45588;51.598;5.618;2023-05-29T00:48:14;19.38;;;5.45;;
59728;SDS011;45588;51.598;5.618;2023-05-29T00:50:40;15.30;;;5.07;;
59728;SDS011;45588;51.598;5.618;2023-05-29T00:53:05;14.82;;;4.32;;
59728;SDS011;45588;51.598;5.618;2023-05-29T00:55:32;14.23;;;4.50;;
59728;SDS011;45588;51.598;5.618;2023-05-29T00:57:58;17.27;;;4.38;;
59728;SDS011;45588;51.598;5.618;2023-05-29T01:00:23;14.32;;;3.65;;
59728;SDS011;45588;51.598;5.618;2023-05-29T01:02:49;16.30;;;5.18;;
59728;SDS011;45588;51.598;5.618;2023-05-29T01:05:14;15.98;;;4.75;;
59728;SDS011;45588;51.598;5.618;2023-05-29T01:07:40;15.63;;;4.10;;
59728;SDS011;45588;51.598;5.618;2023-05-29T01:10:05;24.38;;;5.93;;
59728;SDS011;45588;51.598;5.618;2023-05-29T01:12:33;16.90;;;5.10;;
59728;SDS011;45588;51.598;5.618;2023-05-29T01:15:07;18.17;;;5.97;;
59728;SDS011;45588;51.598;5.618;2023-05-29T01:20:27;14.80;;;4.43;;
59728;SDS011;45588;51.598;5.618;2023-05-29T01:23:07;12.50;;;3.50;;
59728;SDS011;45588;51.598;5.618;2023-05-29T01:25:42;21.35;;;4.75;;
59728;SDS011;45588;51.598;5.618;2023-05-29T01:28:12;24.63;;;5.03;;
59728;SDS011;45588;51.598;5.618;2023-05-29T01:30:37;17.90;;;3.58;;
59728;SDS011;45588;51.598;5.618;2023-05-29T01:33:04;17.25;;;4.28;;
59728;SDS011;45588;51.598;5.618;2023-05-29T01:35:29;13.32;;;4.65;;
59728;SDS011;45588;51.598;5.618;2023-05-29T01:37:54;13.00;;;3.85;;
59728;SDS011;45588;51.598;5.618;2023-05-29T01:40:20;22.58;;;4.30;;
59728;SDS011;45588;51.598;5.618;2023-05-29T01:42:45;20.75;;;7.55;;
59728;SDS011;45588;51.598;5.618;2023-05-29T01:45:10;17.58;;;5.25;;
59728;SDS011;45588;51.598;5.618;2023-05-29T01:47:37;14.45;;;4.57;;
59728;SDS011;45588;51.598;5.618;2023-05-29T01:50:03;13.45;;;4.50;;
59728;SDS011;45588;51.598;5.618;2023-05-29T01:52:28;25.30;;;6.55;;
59728;SDS011;45588;51.598;5.618;2023-05-29T01:54:53;17.23;;;5.10;;
59728;SDS011;45588;51.598;5.618;2023-05-29T01:57:19;20.73;;;5.60;;
59728;SDS011;45588;51.598;5.618;2023-05-29T01:59:45;14.88;;;3.85;;
59728;SDS011;45588;51.598;5.618;2023-05-29T02:02:10;20.20;;;5.35;;
59728;SDS011;45588;51.598;5.618;2023-05-29T02:04:37;20.35;;;4.38;;
59728;SDS011;45588;51.598;5.618;2023-05-29T02:07:03;21.42;;;6.40;;
59728;SDS011;45588;51.598;5.618;2023-05-29T02:09:28;14.70;;;3.72;;
59728;SDS011;45588;51.598;5.618;2023-05-29T02:11:53;15.18;;;4.00;;
59728;SDS011;45588;51.598;5.618;2023-05-29T02:14:19;10.23;;;3.85;;
59728;SDS011;45588;51.598;5.618;2023-05-29T02:16:44;18.90;;;4.50;;
59728;SDS011;45588;51.598;5.618;2023-05-29T02:19:10;23.60;;;4.82;;
59728;SDS011;45588;51.598;5.618;2023-05-29T02:21:37;19.73;;;4.50;;
59728;SDS011;45588;51.598;5.618;2023-05-29T02:24:03;20.90;;;7.07;;
59728;SDS011;45588;51.598;5.618;2023-05-29T02:26:28;13.10;;;4.53;;
59728;SDS011;45588;51.598;5.618;2023-05-29T02:28:53;17.80;;;4.32;;
59728;SDS011;45588;51.598;5.618;2023-05-29T02:31:18;20.10;;;5.10;;
59728;SDS011;45588;51.598;5.618;2023-05-29T02:33:43;22.80;;;4.93;;
59728;SDS011;45588;51.598;5.618;2023-05-29T02:36:09;27.15;;;5.32;;
59728;SDS011;45588;51.598;5.618;2023-05-29T02:38:35;15.15;;;3.67;;
59728;SDS011;45588;51.598;5.618;2023-05-29T02:41:01;19.40;;;4.68;;
59728;SDS011;45588;51.598;5.618;2023-05-29T02:43:26;17.42;;;4.05;;
59728;SDS011;45588;51.598;5.618;2023-05-29T02:45:51;15.77;;;4.07;;
59728;SDS011;45588;51.598;5.618;2023-05-29T02:48:16;19.95;;;5.63;;
59728;SDS011;45588;51.598;5.618;2023-05-29T02:50:41;20.52;;;4.07;;
59728;SDS011;45588;51.598;5.618;2023-05-29T02:53:07;19.60;;;4.90;;
59728;SDS011;45588;51.598;5.618;2023-05-29T02:55:32;26.10;;;6.07;;
59728;SDS011;45588;51.598;5.618;2023-05-29T02:58:00;19.80;;;4.55;;
59728;SDS011;45588;51.598;5.618;2023-05-29T03:00:26;21.90;;;3.95;;
59728;SDS011;45588;51.598;5.618;2023-05-29T03:02:53;24.05;;;4.80;;
59728;SDS011;45588;51.598;5.618;2023-05-29T03:05:18;15.35;;;4.63;;
59728;SDS011;45588;51.598;5.618;2023-05-29T03:07:43;19.52;;;4.60;;
59728;SDS011;45588;51.598;5.618;2023-05-29T03:10:09;18.08;;;3.45;;
59728;SDS011;45588;51.598;5.618;2023-05-29T03:12:34;25.40;;;8.00;;
59728;SDS011;45588;51.598;5.618;2023-05-29T03:15:00;23.23;;;4.47;;
59728;SDS011;45588;51.598;5.618;2023-05-29T03:17:25;16.52;;;4.55;;
59728;SDS011;45588;51.598;5.618;2023-05-29T03:19:50;36.33;;;6.05;;
59728;SDS011;45588;51.598;5.618;2023-05-29T03:22:16;16.25;;;4.65;;
59728;SDS011;45588;51.598;5.618;2023-05-29T03:24:41;22.48;;;4.32;;
59728;SDS011;45588;51.598;5.618;2023-05-29T03:27:06;21.98;;;4.53;;
59728;SDS011;45588;51.598;5.618;2023-05-29T03:29:31;21.23;;;6.10;;
59728;SDS011;45588;51.598;5.618;2023-05-29T03:31:57;19.33;;;5.50;;
59728;SDS011;45588;51.598;5.618;2023-05-29T03:34:22;20.80;;;5.65;;
59728;SDS011;45588;51.598;5.618;2023-05-29T03:36:47;23.80;;;5.90;;
59728;SDS011;45588;51.598;5.618;2023-05-29T03:39:12;20.77;;;5.05;;
59728;SDS011;45588;51.598;5.618;2023-05-29T03:41:38;22.45;;;5.40;;
59728;SDS011;45588;51.598;5.618;2023-05-29T03:44:03;28.20;;;6.85;;
59728;SDS011;45588;51.598;5.618;2023-05-29T03:46:29;23.15;;;7.47;;
59728;SDS011;45588;51.598;5.618;2023-05-29T03:48:54;26.27;;;5.35;;
59728;SDS011;45588;51.598;5.618;2023-05-29T03:51:19;29.70;;;6.13;;
59728;SDS011;45588;51.598;5.618;2023-05-29T03:53:45;25.10;;;5.72;;
59728;SDS011;45588;51.598;5.618;2023-05-29T03:56:10;24.83;;;5.20;;
59728;SDS011;45588;51.598;5.618;2023-05-29T03:58:35;20.30;;;4.43;;
59728;SDS011;45588;51.598;5.618;2023-05-29T04:01:01;21.63;;;4.50;;
59728;SDS011;45588;51.598;5.618;2023-05-29T04:03:26;26.05;;;4.65;;
59728;SDS011;45588;51.598;5.618;2023-05-29T04:05:52;23.67;;;5.07;;
59728;SDS011;45588;51.598;5.618;2023-05-29T04:08:17;25.10;;;4.83;;
59728;SDS011;45588;51.598;5.618;2023-05-29T04:10:42;22.97;;;5.40;;
59728;SDS011;45588;51.598;5.618;2023-05-29T04:13:08;22.90;;;5.25;;
59728;SDS011;45588;51.598;5.618;2023-05-29T04:15:33;14.27;;;4.53;;
59728;SDS011;45588;51.598;5.618;2023-05-29T04:17:59;19.58;;;5.15;;
59728;SDS011;45588;51.598;5.618;2023-05-29T04:20:24;16.67;;;4.43;;
59728;SDS011;45588;51.598;5.618;2023-05-29T04:22:50;17.27;;;3.63;;
59728;SDS011;45588;51.598;5.618;2023-05-29T04:25:15;20.65;;;5.78;;
59728;SDS011;45588;51.598;5.618;2023-05-29T04:27:41;20.10;;;5.25;;
59728;SDS011;45588;51.598;5.618;2023-05-29T04:30:07;20.95;;;5.93;;
59728;SDS011;45588;51.598;5.618;2023-05-29T04:32:32;25.17;;;5.50;;
59728;SDS011;45588;51.598;5.618;2023-05-29T04:34:58;16.50;;;4.63;;
59728;SDS011;45588;51.598;5.618;2023-05-29T04:37:27;20.10;;;4.60;;
59728;SDS011;45588;51.598;5.618;2023-05-29T04:39:54;20.33;;;4.68;;
59728;SDS011;45588;51.598;5.618;2023-05-29T04:42:19;17.23;;;4.35;;
59728;SDS011;45588;51.598;5.618;2023-05-29T04:44:44;20.38;;;5.80;;
59728;SDS011;45588;51.598;5.618;2023-05-29T04:47:09;20.75;;;3.92;;
59728;SDS011;45588;51.598;5.618;2023-05-29T04:49:37;23.27;;;5.40;;
59728;SDS011;45588;51.598;5.618;2023-05-29T04:52:03;24.35;;;4.78;;
59728;SDS011;45588;51.598;5.618;2023-05-29T04:54:29;23.33;;;4.45;;
59728;SDS011;45588;51.598;5.618;2023-05-29T04:56:55;27.20;;;5.70;;
59728;SDS011;45588;51.598;5.618;2023-05-29T04:59:20;24.23;;;5.23;;
59728;SDS011;45588;51.598;5.618;2023-05-29T05:01:45;19.30;;;4.30;;
59728;SDS011;45588;51.598;5.618;2023-05-29T05:04:12;18.48;;;5.18;;
59728;SDS011;45588;51.598;5.618;2023-05-29T05:06:37;22.83;;;4.47;;
59728;SDS011;45588;51.598;5.618;2023-05-29T05:09:04;21.58;;;4.40;;
59728;SDS011;45588;51.598;5.618;2023-05-29T05:11:29;24.02;;;4.60;;
59728;SDS011;45588;51.598;5.618;2023-05-29T05:13:54;25.67;;;5.43;;
59728;SDS011;45588;51.598;5.618;2023-05-29T05:16:19;19.23;;;5.18;;
59728;SDS011;45588;51.598;5.618;2023-05-29T05:18:45;22.40;;;4.33;;
59728;SDS011;45588;51.598;5.618;2023-05-29T05:21:10;23.92;;;4.97;;
59728;SDS011;45588;51.598;5.618;2023-05-29T05:23:35;23.53;;;5.40;;
59728;SDS011;45588;51.598;5.618;2023-05-29T05:26:00;16.83;;;5.20;;
59728;SDS011;45588;51.598;5.618;2023-05-29T05:28:25;22.55;;;6.20;;
59728;SDS011;45588;51.598;5.618;2023-05-29T05:30:51;22.67;;;5.32;;
59728;SDS011;45588;51.598;5.618;2023-05-29T05:33:16;19.45;;;5.13;;
59728;SDS011;45588;51.598;5.618;2023-05-29T05:35:42;22.77;;;5.47;;
59728;SDS011;45588;51.598;5.618;2023-05-29T05:38:07;27.92;;;4.97;;
59728;SDS011;45588;51.598;5.618;2023-05-29T05:40:32;20.13;;;4.45;;
59728;SDS011;45588;51.598;5.618;2023-05-29T05:42:58;20.52;;;4.25;;
59728;SDS011;45588;51.598;5.618;2023-05-29T05:45:23;20.42;;;4.80;;
59728;SDS011;45588;51.598;5.618;2023-05-29T05:47:48;16.50;;;4.78;;
59728;SDS011;45588;51.598;5.618;2023-05-29T05:50:13;22.30;;;4.80;;
59728;SDS011;45588;51.598;5.618;2023-05-29T05:52:39;25.02;;;5.80;;
59728;SDS011;45588;51.598;5.618;2023-05-29T05:55:04;22.25;;;5.32;;
59728;SDS011;45588;51.598;5.618;2023-05-29T05:57:29;21.67;;;5.20;;
59728;SDS011;45588;51.598;5.618;2023-05-29T05:59:57;23.00;;;5.07;;
59728;SDS011;45588;51.598;5.618;2023-05-29T06:02:22;22.85;;;5.95;;
59728;SDS011;45588;51.598;5.618;2023-05-29T06:04:47;18.23;;;3.93;;
59728;SDS011;45588;51.598;5.618;2023-05-29T06:07:14;25.23;;;5.22;;
59728;SDS011;45588;51.598;5.618;2023-05-29T06:09:39;22.75;;;7.10;;
59728;SDS011;45588;51.598;5.618;2023-05-29T06:12:04;24.87;;;4.77;;
59728;SDS011;45588;51.598;5.618;2023-05-29T06:14:32;22.50;;;5.15;;
59728;SDS011;45588;51.598;5.618;2023-05-29T06:16:57;16.17;;;4.77;;
59728;SDS011;45588;51.598;5.618;2023-05-29T06:19:23;21.05;;;5.35;;
59728;SDS011;45588;51.598;5.618;2023-05-29T06:21:48;23.77;;;5.78;;
59728;SDS011;45588;51.598;5.618;2023-05-29T06:24:13;20.67;;;4.90;;
59728;SDS011;45588;51.598;5.618;2023-05-29T06:26:39;16.73;;;4.30;;
59728;SDS011;45588;51.598;5.618;2023-05-29T06:29:04;22.30;;;4.65;;
59728;SDS011;45588;51.598;5.618;2023-05-29T06:31:30;22.58;;;4.65;;
59728;SDS011;45588;51.598;5.618;2023-05-29T06:33:56;19.63;;;5.68;;
59728;SDS011;45588;51.598;5.618;2023-05-29T06:36:22;17.13;;;4.20;;
59728;SDS011;45588;51.598;5.618;2023-05-29T06:38:47;22.90;;;4.47;;
59728;SDS011;45588;51.598;5.618;2023-05-29T06:41:15;19.98;;;4.88;;
59728;SDS011;45588;51.598;5.618;2023-05-29T06:43:41;15.57;;;4.32;;
59728;SDS011;45588;51.598;5.618;2023-05-29T06:46:06;18.25;;;4.43;;
59728;SDS011;45588;51.598;5.618;2023-05-29T06:48:32;14.55;;;4.25;;
59728;SDS011;45588;51.598;5.618;2023-05-29T06:50:57;18.13;;;4.13;;
59728;SDS011;45588;51.598;5.618;2023-05-29T06:53:22;19.20;;;4.95;;
59728;SDS011;45588;51.598;5.618;2023-05-29T06:55:48;21.45;;;4.97;;
59728;SDS011;45588;51.598;5.618;2023-05-29T06:58:13;19.10;;;5.45;;
59728;SDS011;45588;51.598;5.618;2023-05-29T07:00:38;21.23;;;4.97;;
59728;SDS011;45588;51.598;5.618;2023-05-29T07:03:03;19.23;;;4.87;;
59728;SDS011;45588;51.598;5.618;2023-05-29T07:05:28;17.80;;;4.27;;
59728;SDS011;45588;51.598;5.618;2023-05-29T07:07:53;17.05;;;4.47;;
59728;SDS011;45588;51.598;5.618;2023-05-29T07:10:19;20.17;;;4.73;;
59728;SDS011;45588;51.598;5.618;2023-05-29T07:12:44;19.23;;;4.90;;
59728;SDS011;45588;51.598;5.618;2023-05-29T07:15:09;19.67;;;5.22;;
59728;SDS011;45588;51.598;5.618;2023-05-29T07:17:34;17.25;;;4.28;;
59728;SDS011;45588;51.598;5.618;2023-05-29T07:20:00;17.98;;;4.18;;
59728;SDS011;45588;51.598;5.618;2023-05-29T07:22:25;19.70;;;5.18;;
59728;SDS011;45588;51.598;5.618;2023-05-29T07:24:50;18.73;;;4.77;;
59728;SDS011;45588;51.598;5.618;2023-05-29T07:27:15;18.23;;;4.23;;
59728;SDS011;45588;51.598;5.618;2023-05-29T07:29:41;16.95;;;5.82;;
59728;SDS011;45588;51.598;5.618;2023-05-29T07:32:06;15.10;;;3.45;;
59728;SDS011;45588;51.598;5.618;2023-05-29T07:34:32;18.90;;;5.95;;
59728;SDS011;45588;51.598;5.618;2023-05-29T07:36:59;13.10;;;4.70;;
59728;SDS011;45588;51.598;5.618;2023-05-29T07:39:25;13.43;;;4.43;;
59728;SDS011;45588;51.598;5.618;2023-05-29T07:41:50;15.57;;;3.70;;
59728;SDS011;45588;51.598;5.618;2023-05-29T07:44:15;14.02;;;4.55;;
59728;SDS011;45588;51.598;5.618;2023-05-29T07:46:40;21.00;;;6.20;;
59728;SDS011;45588;51.598;5.618;2023-05-29T07:49:05;12.80;;;3.50;;
59728;SDS011;45588;51.598;5.618;2023-05-29T07:51:31;17.83;;;4.63;;
59728;SDS011;45588;51.598;5.618;2023-05-29T07:53:56;18.97;;;4.43;;
59728;SDS011;45588;51.598;5.618;2023-05-29T07:56:21;20.60;;;6.22;;
59728;SDS011;45588;51.598;5.618;2023-05-29T07:58:46;18.40;;;3.47;;
59728;SDS011;45588;51.598;5.618;2023-05-29T08:01:11;16.77;;;3.72;;
59728;SDS011;45588;51.598;5.618;2023-05-29T08:03:37;17.17;;;4.30;;
59728;SDS011;45588;51.598;5.618;2023-05-29T08:06:02;13.97;;;3.63;;
59728;SDS011;45588;51.598;5.618;2023-05-29T08:08:28;13.20;;;3.38;;
59728;SDS011;45588;51.598;5.618;2023-05-29T08:10:53;17.75;;;5.28;;
59728;SDS011;45588;51.598;5.618;2023-05-29T08:13:18;13.53;;;3.67;;
59728;SDS011;45588;51.598;5.618;2023-05-29T08:15:43;16.83;;;4.23;;
59728;SDS011;45588;51.598;5.618;2023-05-29T08:18:08;18.40;;;4.20;;
59728;SDS011;45588;51.598;5.618;2023-05-29T08:20:34;13.18;;;3.58;;
59728;SDS011;45588;51.598;5.618;2023-05-29T08:23:00;13.70;;;4.10;;
59728;SDS011;45588;51.598;5.618;2023-05-29T08:25:25;13.90;;;3.38;;
59728;SDS011;45588;51.598;5.618;2023-05-29T08:27:50;13.27;;;4.25;;
59728;SDS011;45588;51.598;5.618;2023-05-29T08:30:15;15.13;;;3.97;;
59728;SDS011;45588;51.598;5.618;2023-05-29T08:32:41;14.35;;;4.30;;
59728;SDS011;45588;51.598;5.618;2023-05-29T08:35:06;14.30;;;4.13;;
59728;SDS011;45588;51.598;5.618;2023-05-29T08:37:31;12.73;;;3.33;;
59728;SDS011;45588;51.598;5.618;2023-05-29T08:39:56;10.52;;;2.75;;
59728;SDS011;45588;51.598;5.618;2023-05-29T08:42:26;16.20;;;4.55;;
59728;SDS011;45588;51.598;5.618;2023-05-29T08:44:52;17.48;;;4.55;;
59728;SDS011;45588;51.598;5.618;2023-05-29T08:47:20;17.15;;;5.43;;
59728;SDS011;45588;51.598;5.618;2023-05-29T08:49:50;13.70;;;4.22;;
59728;SDS011;45588;51.598;5.618;2023-05-29T08:52:17;20.13;;;5.05;;
59728;SDS011;45588;51.598;5.618;2023-05-29T08:54:43;14.05;;;3.55;;
59728;SDS011;45588;51.598;5.618;2023-05-29T08:57:09;12.85;;;3.42;;
59728;SDS011;45588;51.598;5.618;2023-05-29T08:59:35;15.10;;;4.80;;
59728;SDS011;45588;51.598;5.618;2023-05-29T09:02:01;16.48;;;4.63;;
59728;SDS011;45588;51.598;5.618;2023-05-29T09:04:27;10.45;;;2.90;;
59728;SDS011;45588;51.598;5.618;2023-05-29T09:06:55;10.88;;;3.55;;
59728;SDS011;45588;51.598;5.618;2023-05-29T09:09:20;14.17;;;4.67;;
59728;SDS011;45588;51.598;5.618;2023-05-29T09:11:45;13.98;;;3.67;;
59728;SDS011;45588;51.598;5.618;2023-05-29T09:14:11;13.63;;;4.85;;
59728;SDS011;45588;51.598;5.618;2023-05-29T09:16:41;10.60;;;4.63;;
59728;SDS011;45588;51.598;5.618;2023-05-29T09:19:06;14.18;;;5.05;;
59728;SDS011;45588;51.598;5.618;2023-05-29T09:21:31;13.13;;;4.03;;
59728;SDS011;45588;51.598;5.618;2023-05-29T09:24:04;12.95;;;4.32;;
59728;SDS011;45588;51.598;5.618;2023-05-29T09:26:30;16.33;;;4.97;;
59728;SDS011;45588;51.598;5.618;2023-05-29T09:28:56;13.45;;;4.53;;
59728;SDS011;45588;51.598;5.618;2023-05-29T09:31:21;12.35;;;4.35;;
59728;SDS011;45588;51.598;5.618;2023-05-29T09:33:47;15.02;;;3.22;;
59728;SDS011;45588;51.598;5.618;2023-05-29T09:36:19;10.60;;;2.85;;
59728;SDS011;45588;51.598;5.618;2023-05-29T09:38:45;13.30;;;3.53;;
59728;SDS011;45588;51.598;5.618;2023-05-29T09:41:10;11.60;;;4.82;;
59728;SDS011;45588;51.598;5.618;2023-05-29T09:43:35;14.90;;;3.37;;
59728;SDS011;45588;51.598;5.618;2023-05-29T09:46:03;10.50;;;4.35;;
59728;SDS011;45588;51.598;5.618;2023-05-29T09:48:31;12.15;;;4.20;;
59728;SDS011;45588;51.598;5.618;2023-05-29T09:50:56;13.25;;;5.25;;
59728;SDS011;45588;51.598;5.618;2023-05-29T09:53:23;12.55;;;3.13;;
59728;SDS011;45588;51.598;5.618;2023-05-29T09:55:49;9.48;;;3.00;;
59728;SDS011;45588;51.598;5.618;2023-05-29T09:58:15;10.55;;;2.97;;
59728;SDS011;45588;51.598;5.618;2023-05-29T10:00:42;9.30;;;2.58;;
59728;SDS011;45588;51.598;5.618;2023-05-29T10:03:08;14.20;;;4.45;;
59728;SDS011;45588;51.598;5.618;2023-05-29T10:05:33;9.68;;;4.63;;
59728;SDS011;45588;51.598;5.618;2023-05-29T10:07:59;10.30;;;3.03;;
59728;SDS011;45588;51.598;5.618;2023-05-29T10:10:26;15.27;;;4.47;;
59728;SDS011;45588;51.598;5.618;2023-05-29T10:12:52;9.70;;;3.58;;
59728;SDS011;45588;51.598;5.618;2023-05-29T10:15:18;17.25;;;3.28;;
59728;SDS011;45588;51.598;5.618;2023-05-29T10:17:53;14.63;;;4.88;;
59728;SDS011;45588;51.598;5.618;2023-05-29T10:20:21;12.45;;;5.07;;
59728;SDS011;45588;51.598;5.618;2023-05-29T10:22:47;12.52;;;3.00;;
59728;SDS011;45588;51.598;5.618;2023-05-29T10:25:13;7.13;;;2.58;;
59728;SDS011;45588;51.598;5.618;2023-05-29T10:27:40;12.40;;;4.20;;
59728;SDS011;45588;51.598;5.618;2023-05-29T10:30:07;14.27;;;5.05;;
59728;SDS011;45588;51.598;5.618;2023-05-29T10:35:11;14.45;;;4.40;;
59728;SDS011;45588;51.598;5.618;2023-05-29T10:40:04;10.52;;;4.63;;
59728;SDS011;45588;51.598;5.618;2023-05-29T10:42:48;9.35;;;3.22;;
59728;SDS011;45588;51.598;5.618;2023-05-29T10:48:47;12.50;;;4.50;;
59728;SDS011;45588;51.598;5.618;2023-05-29T10:50:48;10.93;;;4.05;;
59728;SDS011;45588;51.598;5.618;2023-05-29T10:53:16;9.68;;;4.43;;
59728;SDS011;45588;51.598;5.618;2023-05-29T10:55:42;7.85;;;2.55;;
59728;SDS011;45588;51.598;5.618;2023-05-29T10:58:07;12.40;;;2.97;;
59728;SDS011;45588;51.598;5.618;2023-05-29T11:00:33;7.80;;;3.90;;
59728;SDS011;45588;51.598;5.618;2023-05-29T11:03:06;13.80;;;5.18;;
59728;SDS011;45588;51.598;5.618;2023-05-29T11:05:31;18.00;;;5.15;;
59728;SDS011;45588;51.598;5.618;2023-05-29T11:07:57;12.00;;;4.50;;
59728;SDS011;45588;51.598;5.618;2023-05-29T11:13:07;11.85;;;4.07;;
59728;SDS011;45588;51.598;5.618;2023-05-29T11:15:32;7.65;;;3.30;;
59728;SDS011;45588;51.598;5.618;2023-05-29T11:18:05;14.90;;;4.80;;
59728;SDS011;45588;51.598;5.618;2023-05-29T11:20:35;9.02;;;3.75;;
59728;SDS011;45588;51.598;5.618;2023-05-29T11:25:27;8.17;;;4.27;;
59728;SDS011;45588;51.598;5.618;2023-05-29T11:27:52;15.13;;;4.43;;
59728;SDS011;45588;51.598;5.618;2023-05-29T11:30:18;9.75;;;3.58;;
59728;SDS011;45588;51.598;5.618;2023-05-29T11:32:44;15.15;;;5.18;;
59728;SDS011;45588;51.598;5.618;2023-05-29T11:35:10;13.23;;;3.92;;
59728;SDS011;45588;51.598;5.618;2023-05-29T11:37:35;10.30;;;4.55;;
59728;SDS011;45588;51.598;5.618;2023-05-29T11:40:03;10.85;;;3.85;;
59728;SDS011;45588;51.598;5.618;2023-05-29T11:42:28;9.98;;;4.00;;
59728;SDS011;45588;51.598;5.618;2023-05-29T11:44:54;11.57;;;5.05;;
59728;SDS011;45588;51.598;5.618;2023-05-29T11:47:19;10.82;;;4.18;;
59728;SDS011;45588;51.598;5.618;2023-05-29T11:49:47;8.88;;;4.10;;
59728;SDS011;45588;51.598;5.618;2023-05-29T11:52:13;7.47;;;3.50;;
59728;SDS011;45588;51.598;5.618;2023-05-29T11:54:42;11.52;;;3.80;;
59728;SDS011;45588;51.598;5.618;2023-05-29T11:57:16;12.48;;;4.15;;
59728;SDS011;45588;51.598;5.618;2023-05-29T11:59:42;8.03;;;2.47;;
59728;SDS011;45588;51.598;5.618;2023-05-29T12:02:07;9.38;;;4.30;;
59728;SDS011;45588;51.598;5.618;2023-05-29T12:04:32;12.77;;;3.93;;
59728;SDS011;45588;51.598;5.618;2023-05-29T12:06:57;8.73;;;3.70;;
59728;SDS011;45588;51.598;5.618;2023-05-29T12:09:23;11.43;;;4.00;;
59728;SDS011;45588;51.598;5.618;2023-05-29T12:11:50;12.23;;;4.60;;
59728;SDS011;45588;51.598;5.618;2023-05-29T12:14:15;10.32;;;4.25;;
59728;SDS011;45588;51.598;5.618;2023-05-29T12:16:40;9.20;;;4.40;;
59728;SDS011;45588;51.598;5.618;2023-05-29T12:19:05;8.30;;;4.30;;
59728;SDS011;45588;51.598;5.618;2023-05-29T12:21:30;16.17;;;4.35;;
59728;SDS011;45588;51.598;5.618;2023-05-29T12:23:56;8.03;;;3.97;;
59728;SDS011;45588;51.598;5.618;2023-05-29T12:26:21;11.43;;;4.63;;
59728;SDS011;45588;51.598;5.618;2023-05-29T12:28:47;10.38;;;4.68;;
59728;SDS011;45588;51.598;5.618;2023-05-29T12:31:13;10.82;;;4.82;;
59728;SDS011;45588;51.598;5.618;2023-05-29T12:33:42;8.93;;;4.25;;
59728;SDS011;45588;51.598;5.618;2023-05-29T12:36:08;14.05;;;4.72;;
59728;SDS011;45588;51.598;5.618;2023-05-29T12:38:47;14.38;;;4.53;;
59728;SDS011;45588;51.598;5.618;2023-05-29T12:41:28;9.82;;;4.00;;
59728;SDS011;45588;51.598;5.618;2023-05-29T12:43:54;12.30;;;5.05;;
59728;SDS011;45588;51.598;5.618;2023-05-29T12:46:20;10.27;;;4.32;;
59728;SDS011;45588;51.598;5.618;2023-05-29T12:48:45;8.43;;;3.92;;
59728;SDS011;45588;51.598;5.618;2023-05-29T12:51:10;8.23;;;3.70;;
59728;SDS011;45588;51.598;5.618;2023-05-29T12:53:36;10.82;;;4.05;;
59728;SDS011;45588;51.598;5.618;2023-05-29T12:56:01;11.18;;;5.03;;
59728;SDS011;45588;51.598;5.618;2023-05-29T12:58:27;8.93;;;3.93;;
59728;SDS011;45588;51.598;5.618;2023-05-29T13:00:52;10.02;;;3.92;;
59728;SDS011;45588;51.598;5.618;2023-05-29T13:03:20;10.05;;;4.25;;
59728;SDS011;45588;51.598;5.618;2023-05-29T13:05:48;10.23;;;4.22;;
59728;SDS011;45588;51.598;5.618;2023-05-29T13:08:13;10.43;;;4.13;;
59728;SDS011;45588;51.598;5.618;2023-05-29T13:10:38;8.65;;;3.60;;
59728;SDS011;45588;51.598;5.618;2023-05-29T13:13:03;10.02;;;4.25;;
59728;SDS011;45588;51.598;5.618;2023-05-29T13:15:29;10.70;;;4.30;;
59728;SDS011;45588;51.598;5.618;2023-05-29T13:17:54;10.85;;;4.30;;
59728;SDS011;45588;51.598;5.618;2023-05-29T13:20:19;11.83;;;5.03;;
59728;SDS011;45588;51.598;5.618;2023-05-29T13:22:45;11.55;;;3.92;;
59728;SDS011;45588;51.598;5.618;2023-05-29T13:25:11;9.80;;;4.32;;
59728;SDS011;45588;51.598;5.618;2023-05-29T13:27:37;11.13;;;4.22;;
59728;SDS011;45588;51.598;5.618;2023-05-29T13:30:03;15.27;;;4.75;;
59728;SDS011;45588;51.598;5.618;2023-05-29T13:32:29;13.48;;;5.10;;
59728;SDS011;45588;51.598;5.618;2023-05-29T13:34:54;12.30;;;4.95;;
59728;SDS011;45588;51.598;5.618;2023-05-29T13:37:19;10.37;;;4.77;;
59728;SDS011;45588;51.598;5.618;2023-05-29T13:39:44;11.77;;;4.63;;
59728;SDS011;45588;51.598;5.618;2023-05-29T13:42:10;10.55;;;4.82;;
59728;SDS011;45588;51.598;5.618;2023-05-29T13:44:36;13.15;;;4.90;;
59728;SDS011;45588;51.598;5.618;2023-05-29T13:47:01;13.90;;;5.32;;
59728;SDS011;45588;51.598;5.618;2023-05-29T13:49:27;13.40;;;5.00;;
59728;SDS011;45588;51.598;5.618;2023-05-29T13:51:52;13.23;;;5.53;;
59728;SDS011;45588;51.598;5.618;2023-05-29T13:54:17;15.05;;;5.25;;
59728;SDS011;45588;51.598;5.618;2023-05-29T13:56:43;14.77;;;5.30;;
59728;SDS011;45588;51.598;5.618;2023-05-29T13:59:08;12.23;;;5.05;;
59728;SDS011;45588;51.598;5.618;2023-05-29T14:01:33;11.93;;;5.17;;
59728;SDS011;45588;51.598;5.618;2023-05-29T14:03:58;12.25;;;4.72;;
59728;SDS011;45588;51.598;5.618;2023-05-29T14:06:24;9.75;;;5.10;;
59728;SDS011;45588;51.598;5.618;2023-05-29T14:08:49;14.30;;;5.22;;
59728;SDS011;45588;51.598;5.618;2023-05-29T14:11:14;15.63;;;5.47;;
59728;SDS011;45588;51.598;5.618;2023-05-29T14:13:40;15.90;;;5.45;;
59728;SDS011;45588;51.598;5.618;2023-05-29T14:16:05;21.40;;;5.90;;
59728;SDS011;45588;51.598;5.618;2023-05-29T14:18:30;11.63;;;5.20;;
59728;SDS011;45588;51.598;5.618;2023-05-29T14:20:55;15.95;;;5.80;;
59728;SDS011;45588;51.598;5.618;2023-05-29T14:23:20;11.52;;;5.55;;
59728;SDS011;45588;51.598;5.618;2023-05-29T14:25:46;12.77;;;5.15;;
59728;SDS011;45588;51.598;5.618;2023-05-29T14:28:11;15.10;;;5.65;;
59728;SDS011;45588;51.598;5.618;2023-05-29T14:30:36;12.67;;;5.30;;
59728;SDS011;45588;51.598;5.618;2023-05-29T14:33:02;14.30;;;4.80;;
59728;SDS011;45588;51.598;5.618;2023-05-29T14:35:27;12.75;;;5.15;;
59728;SDS011;45588;51.598;5.618;2023-05-29T14:37:52;14.70;;;4.63;;
59728;SDS011;45588;51.598;5.618;2023-05-29T14:40:17;14.00;;;5.33;;
59728;SDS011;45588;51.598;5.618;2023-05-29T14:42:42;12.02;;;4.55;;
59728;SDS011;45588;51.598;5.618;2023-05-29T14:45:08;12.97;;;4.23;;